sensor_id;sensor_type;location;lat;lon;timestamp;temperature;humidity
56300;DHT22;42209;6.376;-10.782;2022-10-28T06:52:44;23.50;61.60
56300;DHT22;42209;6.376;-10.782;2022-10-28T06:55:17;22.90;58.00
56300;DHT22;42209;6.376;-10.782;2022-10-28T06:57:45;22.80;56.30
56300;DHT22;42209;6.376;-10.782;2022-10-28T07:00:14;22.60;55.90
56300;DHT22;42209;6.376;-10.782;2022-10-28T07:02:42;22.70;60.00
56300;DHT22;42209;6.376;-10.782;2022-10-28T07:05:11;22.90;62.70
56300;DHT22;42209;6.376;-10.782;2022-10-28T07:07:39;23.00;64.10
56300;DHT22;42209;6.376;-10.782;2022-10-28T07:10:08;23.10;65.30
56300;DHT22;42209;6.376;-10.782;2022-10-28T07:12:36;23.20;66.50
56300;DHT22;42209;6.376;-10.782;2022-10-28T07:15:05;23.30;67.20
56300;DHT22;42209;6.376;-10.782;2022-10-28T07:17:33;23.30;68.00
56300;DHT22;42209;6.376;-10.782;2022-10-28T07:20:01;23.40;68.40
56300;DHT22;42209;6.376;-10.782;2022-10-28T07:22:29;23.50;68.40
56300;DHT22;42209;6.376;-10.782;2022-10-28T07:24:57;23.60;68.30
56300;DHT22;42209;6.376;-10.782;2022-10-28T07:27:25;23.50;62.90
56300;DHT22;42209;6.376;-10.782;2022-10-28T07:29:54;23.20;59.80
56300;DHT22;42209;6.376;-10.782;2022-10-28T07:32:22;23.00;58.00
56300;DHT22;42209;6.376;-10.782;2022-10-28T07:34:50;22.70;56.50
56300;DHT22;42209;6.376;-10.782;2022-10-28T07:37:18;22.60;55.70
56300;DHT22;42209;6.376;-10.782;2022-10-28T07:39:46;22.80;59.80
56300;DHT22;42209;6.376;-10.782;2022-10-28T07:42:15;22.90;62.70
56300;DHT22;42209;6.376;-10.782;2022-10-28T07:44:43;23.10;64.30
56300;DHT22;42209;6.376;-10.782;2022-10-28T07:47:11;23.20;65.70
56300;DHT22;42209;6.376;-10.782;2022-10-28T07:49:39;23.20;66.50
56300;DHT22;42209;6.376;-10.782;2022-10-28T07:52:08;23.30;67.60
56300;DHT22;42209;6.376;-10.782;2022-10-28T07:54:36;23.30;68.20
56300;DHT22;42209;6.376;-10.782;2022-10-28T07:57:04;23.40;68.50
56300;DHT22;42209;6.376;-10.782;2022-10-28T07:59:33;23.40;68.70
56300;DHT22;42209;6.376;-10.782;2022-10-28T08:02:01;23.50;68.60
56300;DHT22;42209;6.376;-10.782;2022-10-28T08:04:31;23.50;63.10
56300;DHT22;42209;6.376;-10.782;2022-10-28T08:06:59;23.20;60.00
56300;DHT22;42209;6.376;-10.782;2022-10-28T08:09:28;22.90;58.40
56300;DHT22;42209;6.376;-10.782;2022-10-28T08:11:56;22.80;56.70
56300;DHT22;42209;6.376;-10.782;2022-10-28T08:14:24;22.80;60.60
56300;DHT22;42209;6.376;-10.782;2022-10-28T08:16:52;22.90;63.50
56300;DHT22;42209;6.376;-10.782;2022-10-28T08:19:20;23.00;65.00
56300;DHT22;42209;6.376;-10.782;2022-10-28T08:21:49;23.20;66.20
56300;DHT22;42209;6.376;-10.782;2022-10-28T08:24:17;23.20;67.40
56300;DHT22;42209;6.376;-10.782;2022-10-28T08:26:45;23.30;68.40
56300;DHT22;42209;6.376;-10.782;2022-10-28T08:29:14;23.40;69.30
56300;DHT22;42209;6.376;-10.782;2022-10-28T08:31:42;23.40;69.60
56300;DHT22;42209;6.376;-10.782;2022-10-28T08:34:11;23.50;69.70
56300;DHT22;42209;6.376;-10.782;2022-10-28T08:36:39;23.60;69.50
56300;DHT22;42209;6.376;-10.782;2022-10-28T08:39:07;23.50;63.00
56300;DHT22;42209;6.376;-10.782;2022-10-28T08:44:40;22.90;58.90
56300;DHT22;42209;6.376;-10.782;2022-10-28T08:49:40;22.60;55.40
56300;DHT22;42209;6.376;-10.782;2022-10-28T08:52:33;22.50;54.30
56300;DHT22;42209;6.376;-10.782;2022-10-28T08:55:16;22.50;55.40
56300;DHT22;42209;6.376;-10.782;2022-10-28T08:57:55;22.70;60.20
56300;DHT22;42209;6.376;-10.782;2022-10-28T09:00:30;22.90;63.20
56300;DHT22;42209;6.376;-10.782;2022-10-28T09:05:33;23.10;65.50
56300;DHT22;42209;6.376;-10.782;2022-10-28T09:08:01;23.20;66.70
56300;DHT22;42209;6.376;-10.782;2022-10-28T09:11:07;23.30;67.70
56300;DHT22;42209;6.376;-10.782;2022-10-28T09:20:03;23.50;68.40
56300;DHT22;42209;6.376;-10.782;2022-10-28T09:22:56;23.40;62.40
56300;DHT22;42209;6.376;-10.782;2022-10-28T09:25:33;23.10;59.60
56300;DHT22;42209;6.376;-10.782;2022-10-28T09:28:25;22.90;57.40
56300;DHT22;42209;6.376;-10.782;2022-10-28T09:33:50;22.50;54.30
56300;DHT22;42209;6.376;-10.782;2022-10-28T09:36:29;22.50;56.30
56300;DHT22;42209;6.376;-10.782;2022-10-28T09:39:00;22.80;60.90
56300;DHT22;42209;6.376;-10.782;2022-10-28T09:41:35;22.90;63.20
56300;DHT22;42209;6.376;-10.782;2022-10-28T09:44:21;23.10;64.60
56300;DHT22;42209;6.376;-10.782;2022-10-28T09:46:56;23.10;66.00
56300;DHT22;42209;6.376;-10.782;2022-10-28T09:49:36;23.20;67.70
56300;DHT22;42209;6.376;-10.782;2022-10-28T09:52:16;23.30;68.10
56300;DHT22;42209;6.376;-10.782;2022-10-28T09:54:49;23.40;68.70
56300;DHT22;42209;6.376;-10.782;2022-10-28T09:57:19;23.50;69.10
56300;DHT22;42209;6.376;-10.782;2022-10-28T09:59:47;23.60;67.70
56300;DHT22;42209;6.376;-10.782;2022-10-28T10:02:29;23.40;62.20
56300;DHT22;42209;6.376;-10.782;2022-10-28T10:04:59;23.20;60.00
56300;DHT22;42209;6.376;-10.782;2022-10-28T10:07:38;22.90;58.10
56300;DHT22;42209;6.376;-10.782;2022-10-28T10:10:15;22.70;56.30
56300;DHT22;42209;6.376;-10.782;2022-10-28T10:12:44;22.60;55.10
56300;DHT22;42209;6.376;-10.782;2022-10-28T10:15:31;22.50;53.80
56300;DHT22;42209;6.376;-10.782;2022-10-28T10:18:03;22.50;55.20
56300;DHT22;42209;6.376;-10.782;2022-10-28T10:20:52;22.70;58.70
56300;DHT22;42209;6.376;-10.782;2022-10-28T10:23:28;22.90;62.20
56300;DHT22;42209;6.376;-10.782;2022-10-28T10:26:07;23.10;63.70
56300;DHT22;42209;6.376;-10.782;2022-10-28T10:28:49;23.10;65.20
56300;DHT22;42209;6.376;-10.782;2022-10-28T10:31:21;23.30;66.40
56300;DHT22;42209;6.376;-10.782;2022-10-28T10:34:00;23.30;67.40
56300;DHT22;42209;6.376;-10.782;2022-10-28T10:36:28;23.40;68.40
56300;DHT22;42209;6.376;-10.782;2022-10-28T10:38:59;23.50;68.80
56300;DHT22;42209;6.376;-10.782;2022-10-28T10:41:54;23.60;68.90
56300;DHT22;42209;6.376;-10.782;2022-10-28T10:44:29;23.50;62.50
56300;DHT22;42209;6.376;-10.782;2022-10-28T10:49:34;22.90;58.30
56300;DHT22;42209;6.376;-10.782;2022-10-28T10:52:14;22.80;57.20
56300;DHT22;42209;6.376;-10.782;2022-10-28T10:55:05;22.70;55.60
56300;DHT22;42209;6.376;-10.782;2022-10-28T10:57:35;22.60;53.90
56300;DHT22;42209;6.376;-10.782;2022-10-28T11:00:03;22.50;52.60
56300;DHT22;42209;6.376;-10.782;2022-10-28T11:02:32;22.50;52.20
56300;DHT22;42209;6.376;-10.782;2022-10-28T11:05:02;22.40;51.30
56300;DHT22;42209;6.376;-10.782;2022-10-28T11:07:31;22.40;50.70
56300;DHT22;42209;6.376;-10.782;2022-10-28T11:09:59;22.50;55.00
56300;DHT22;42209;6.376;-10.782;2022-10-28T11:12:31;22.70;58.10
56300;DHT22;42209;6.376;-10.782;2022-10-28T11:15:21;22.90;60.60
56300;DHT22;42209;6.376;-10.782;2022-10-28T11:17:54;23.00;62.20
56300;DHT22;42209;6.376;-10.782;2022-10-28T11:21:09;23.10;63.80
56300;DHT22;42209;6.376;-10.782;2022-10-28T11:25:45;23.30;66.30
56300;DHT22;42209;6.376;-10.782;2022-10-28T11:31:06;23.50;67.50
56300;DHT22;42209;6.376;-10.782;2022-10-28T11:36:28;23.30;60.60
56300;DHT22;42209;6.376;-10.782;2022-10-28T11:41:43;22.80;57.00
56300;DHT22;42209;6.376;-10.782;2022-10-28T11:44:38;22.70;55.60
56300;DHT22;42209;6.376;-10.782;2022-10-28T11:50:44;22.50;53.30
56300;DHT22;42209;6.376;-10.782;2022-10-28T11:52:47;22.40;51.80
56300;DHT22;42209;6.376;-10.782;2022-10-28T11:57:51;22.30;49.90
56300;DHT22;42209;6.376;-10.782;2022-10-28T12:00:28;22.50;53.00
56300;DHT22;42209;6.376;-10.782;2022-10-28T12:05:46;22.90;59.00
56300;DHT22;42209;6.376;-10.782;2022-10-28T12:08:32;23.00;61.00
56300;DHT22;42209;6.376;-10.782;2022-10-28T12:11:07;23.10;62.60
56300;DHT22;42209;6.376;-10.782;2022-10-28T12:14:21;23.20;64.20
56300;DHT22;42209;6.376;-10.782;2022-10-28T12:19:07;23.40;66.00
56300;DHT22;42209;6.376;-10.782;2022-10-28T12:21:54;23.50;66.40
56300;DHT22;42209;6.376;-10.782;2022-10-28T12:24:22;23.50;65.80
56300;DHT22;42209;6.376;-10.782;2022-10-28T12:26:55;23.40;59.80
56300;DHT22;42209;6.376;-10.782;2022-10-28T12:29:27;23.20;57.70
56300;DHT22;42209;6.376;-10.782;2022-10-28T12:31:57;22.90;55.70
56300;DHT22;42209;6.376;-10.782;2022-10-28T12:34:32;22.70;54.50
56300;DHT22;42209;6.376;-10.782;2022-10-28T12:37:02;22.60;53.00
56300;DHT22;42209;6.376;-10.782;2022-10-28T12:39:36;22.50;52.30
56300;DHT22;42209;6.376;-10.782;2022-10-28T12:42:11;22.40;51.40
56300;DHT22;42209;6.376;-10.782;2022-10-28T12:44:41;22.50;52.80
56300;DHT22;42209;6.376;-10.782;2022-10-28T12:47:15;22.70;57.40
56300;DHT22;42209;6.376;-10.782;2022-10-28T12:49:48;22.90;59.90
56300;DHT22;42209;6.376;-10.782;2022-10-28T12:55:15;23.20;63.30
56300;DHT22;42209;6.376;-10.782;2022-10-28T12:57:49;23.30;64.80
56300;DHT22;42209;6.376;-10.782;2022-10-28T13:00:21;23.40;65.80
56300;DHT22;42209;6.376;-10.782;2022-10-28T13:02:58;23.40;66.50
56300;DHT22;42209;6.376;-10.782;2022-10-28T13:11:05;23.40;59.50
56300;DHT22;42209;6.376;-10.782;2022-10-28T13:13:37;23.10;57.40
56300;DHT22;42209;6.376;-10.782;2022-10-28T13:19:03;22.70;54.50
56300;DHT22;42209;6.376;-10.782;2022-10-28T13:26:40;22.60;51.20
56300;DHT22;42209;6.376;-10.782;2022-10-28T13:29:24;22.50;50.70
56300;DHT22;42209;6.376;-10.782;2022-10-28T13:31:53;22.50;50.20
56300;DHT22;42209;6.376;-10.782;2022-10-28T13:34:28;22.40;49.40
56300;DHT22;42209;6.376;-10.782;2022-10-28T13:36:57;22.40;49.30
56300;DHT22;42209;6.376;-10.782;2022-10-28T13:42:58;22.40;48.30
56300;DHT22;42209;6.376;-10.782;2022-10-28T13:44:55;22.40;48.10
56300;DHT22;42209;6.376;-10.782;2022-10-28T13:52:36;22.30;47.20
56300;DHT22;42209;6.376;-10.782;2022-10-28T13:57:42;22.30;45.80
56300;DHT22;42209;6.376;-10.782;2022-10-28T14:02:46;22.30;45.60
56300;DHT22;42209;6.376;-10.782;2022-10-28T14:05:15;22.20;45.10
56300;DHT22;42209;6.376;-10.782;2022-10-28T14:07:54;22.20;45.00
56300;DHT22;42209;6.376;-10.782;2022-10-28T14:10:29;22.20;44.40
56300;DHT22;42209;6.376;-10.782;2022-10-28T14:13:19;22.20;43.90
56300;DHT22;42209;6.376;-10.782;2022-10-28T14:15:46;22.10;43.70
56300;DHT22;42209;6.376;-10.782;2022-10-28T14:21:03;22.60;52.10
56300;DHT22;42209;6.376;-10.782;2022-10-28T14:26:03;22.90;56.30
56300;DHT22;42209;6.376;-10.782;2022-10-28T14:47:00;23.00;52.80
56300;DHT22;42209;6.376;-10.782;2022-10-28T14:49:32;22.80;51.50
56300;DHT22;42209;6.376;-10.782;2022-10-28T14:52:19;22.60;49.90
56300;DHT22;42209;6.376;-10.782;2022-10-28T14:54:51;22.60;49.10
56300;DHT22;42209;6.376;-10.782;2022-10-28T14:57:25;22.50;48.10
56300;DHT22;42209;6.376;-10.782;2022-10-28T15:00:06;22.50;47.90
56300;DHT22;42209;6.376;-10.782;2022-10-28T15:02:35;22.50;47.00
56300;DHT22;42209;6.376;-10.782;2022-10-28T15:07:38;22.50;46.20
56300;DHT22;42209;6.376;-10.782;2022-10-28T15:12:42;22.70;46.10
56300;DHT22;42209;6.376;-10.782;2022-10-28T15:15:17;22.80;45.90
56300;DHT22;42209;6.376;-10.782;2022-10-28T15:17:45;22.90;47.30
56300;DHT22;42209;6.376;-10.782;2022-10-28T15:20:23;23.00;51.40
56300;DHT22;42209;6.376;-10.782;2022-10-28T15:22:52;23.20;55.30
56300;DHT22;42209;6.376;-10.782;2022-10-28T15:25:21;23.20;52.40
56300;DHT22;42209;6.376;-10.782;2022-10-28T15:27:49;23.10;50.20
56300;DHT22;42209;6.376;-10.782;2022-10-28T15:30:22;23.00;51.30
56300;DHT22;42209;6.376;-10.782;2022-10-28T15:32:51;23.10;55.30
56300;DHT22;42209;6.376;-10.782;2022-10-28T15:35:34;23.20;55.00
56300;DHT22;42209;6.376;-10.782;2022-10-28T15:38:02;23.10;51.80
56300;DHT22;42209;6.376;-10.782;2022-10-28T15:40:49;23.00;50.40
56300;DHT22;42209;6.376;-10.782;2022-10-28T15:43:18;22.90;49.50
56300;DHT22;42209;6.376;-10.782;2022-10-28T15:45:47;22.80;48.90
56300;DHT22;42209;6.376;-10.782;2022-10-28T15:48:25;22.80;48.30
56300;DHT22;42209;6.376;-10.782;2022-10-28T15:51:13;22.80;48.00
56300;DHT22;42209;6.376;-10.782;2022-10-28T15:53:42;22.80;47.10
56300;DHT22;42209;6.376;-10.782;2022-10-28T15:58:41;22.80;47.10
56300;DHT22;42209;6.376;-10.782;2022-10-28T16:03:52;23.00;46.60
56300;DHT22;42209;6.376;-10.782;2022-10-28T16:06:27;23.00;47.00
56300;DHT22;42209;6.376;-10.782;2022-10-28T16:11:43;23.00;47.50
56300;DHT22;42209;6.376;-10.782;2022-10-28T16:16:45;23.00;50.20
56300;DHT22;42209;6.376;-10.782;2022-10-28T16:19:22;23.10;50.00
56300;DHT22;42209;6.376;-10.782;2022-10-28T16:21:52;23.00;48.50
56300;DHT22;42209;6.376;-10.782;2022-10-28T16:24:19;23.00;48.10
56300;DHT22;42209;6.376;-10.782;2022-10-28T16:26:47;22.90;47.10
56300;DHT22;42209;6.376;-10.782;2022-10-28T16:29:15;22.80;46.60
56300;DHT22;42209;6.376;-10.782;2022-10-28T16:31:43;22.90;46.70
56300;DHT22;42209;6.376;-10.782;2022-10-28T16:34:12;22.80;46.20
56300;DHT22;42209;6.376;-10.782;2022-10-28T16:36:41;22.90;46.00
56300;DHT22;42209;6.376;-10.782;2022-10-28T16:39:12;23.00;45.90
56300;DHT22;42209;6.376;-10.782;2022-10-28T16:41:39;23.00;45.80
56300;DHT22;42209;6.376;-10.782;2022-10-28T16:44:11;23.10;46.40
56300;DHT22;42209;6.376;-10.782;2022-10-28T16:46:41;23.20;46.50
56300;DHT22;42209;6.376;-10.782;2022-10-28T16:49:09;23.10;45.40
56300;DHT22;42209;6.376;-10.782;2022-10-28T16:51:37;23.00;47.30
56300;DHT22;42209;6.376;-10.782;2022-10-28T16:54:05;23.20;49.60
56300;DHT22;42209;6.376;-10.782;2022-10-28T16:56:33;23.10;47.40
56300;DHT22;42209;6.376;-10.782;2022-10-28T16:59:01;23.10;46.50
56300;DHT22;42209;6.376;-10.782;2022-10-28T17:01:28;23.00;46.10
56300;DHT22;42209;6.376;-10.782;2022-10-28T17:03:57;23.00;45.60
56300;DHT22;42209;6.376;-10.782;2022-10-28T17:06:24;23.00;45.30
56300;DHT22;42209;6.376;-10.782;2022-10-28T17:08:52;23.10;44.60
56300;DHT22;42209;6.376;-10.782;2022-10-28T17:11:29;23.10;44.30
56300;DHT22;42209;6.376;-10.782;2022-10-28T17:13:57;23.10;45.20
56300;DHT22;42209;6.376;-10.782;2022-10-28T17:16:25;23.20;46.50
56300;DHT22;42209;6.376;-10.782;2022-10-28T17:18:53;23.10;45.20
56300;DHT22;42209;6.376;-10.782;2022-10-28T17:21:21;23.00;44.80
56300;DHT22;42209;6.376;-10.782;2022-10-28T17:23:49;23.10;48.20
56300;DHT22;42209;6.376;-10.782;2022-10-28T17:26:17;23.20;47.20
56300;DHT22;42209;6.376;-10.782;2022-10-28T17:28:49;23.00;45.70
56300;DHT22;42209;6.376;-10.782;2022-10-28T17:31:17;23.00;45.10
56300;DHT22;42209;6.376;-10.782;2022-10-28T17:33:51;22.80;44.50
56300;DHT22;42209;6.376;-10.782;2022-10-28T17:36:19;22.70;44.00
56300;DHT22;42209;6.376;-10.782;2022-10-28T17:38:48;22.80;43.40
56300;DHT22;42209;6.376;-10.782;2022-10-28T17:43:44;23.00;42.60
56300;DHT22;42209;6.376;-10.782;2022-10-28T17:46:12;23.20;43.00
56300;DHT22;42209;6.376;-10.782;2022-10-28T17:48:40;23.20;46.70
56300;DHT22;42209;6.376;-10.782;2022-10-28T17:51:09;23.20;45.40
56300;DHT22;42209;6.376;-10.782;2022-10-28T17:53:37;23.10;43.70
56300;DHT22;42209;6.376;-10.782;2022-10-28T17:56:06;22.90;43.30
56300;DHT22;42209;6.376;-10.782;2022-10-28T17:58:34;22.80;43.20
56300;DHT22;42209;6.376;-10.782;2022-10-28T18:01:04;22.80;42.80
56300;DHT22;42209;6.376;-10.782;2022-10-28T18:03:34;22.90;42.60
56300;DHT22;42209;6.376;-10.782;2022-10-28T18:06:08;22.90;42.50
56300;DHT22;42209;6.376;-10.782;2022-10-28T18:08:39;23.00;44.80
56300;DHT22;42209;6.376;-10.782;2022-10-28T18:11:09;23.20;49.30
56300;DHT22;42209;6.376;-10.782;2022-10-28T18:13:40;23.20;51.80
56300;DHT22;42209;6.376;-10.782;2022-10-28T18:16:11;23.30;54.00
56300;DHT22;42209;6.376;-10.782;2022-10-28T18:18:40;23.50;52.10
56300;DHT22;42209;6.376;-10.782;2022-10-28T18:21:10;23.20;48.50
56300;DHT22;42209;6.376;-10.782;2022-10-28T18:23:39;23.00;48.20
56300;DHT22;42209;6.376;-10.782;2022-10-28T18:26:13;23.10;52.90
56300;DHT22;42209;6.376;-10.782;2022-10-28T18:28:43;23.20;56.10
56300;DHT22;42209;6.376;-10.782;2022-10-28T18:31:13;23.30;57.80
56300;DHT22;42209;6.376;-10.782;2022-10-28T18:33:43;23.40;54.90
56300;DHT22;42209;6.376;-10.782;2022-10-28T18:37:16;23.30;51.90
56300;DHT22;42209;6.376;-10.782;2022-10-28T18:39:44;23.30;52.80
56300;DHT22;42209;6.376;-10.782;2022-10-28T18:42:12;23.50;57.00
56300;DHT22;42209;6.376;-10.782;2022-10-28T18:44:48;23.40;53.70
56300;DHT22;42209;6.376;-10.782;2022-10-28T18:47:16;23.30;51.80
56300;DHT22;42209;6.376;-10.782;2022-10-28T18:49:44;23.00;50.20
56300;DHT22;42209;6.376;-10.782;2022-10-28T18:52:12;22.90;48.80
56300;DHT22;42209;6.376;-10.782;2022-10-28T18:54:41;22.80;47.90
56300;DHT22;42209;6.376;-10.782;2022-10-28T18:57:09;22.70;47.10
56300;DHT22;42209;6.376;-10.782;2022-10-28T18:59:37;22.70;46.30
56300;DHT22;42209;6.376;-10.782;2022-10-28T19:02:25;22.70;45.50
56300;DHT22;42209;6.376;-10.782;2022-10-28T19:04:54;22.80;45.20
56300;DHT22;42209;6.376;-10.782;2022-10-28T19:07:22;22.80;44.30
56300;DHT22;42209;6.376;-10.782;2022-10-28T19:09:50;22.90;44.30
56300;DHT22;42209;6.376;-10.782;2022-10-28T19:12:19;22.90;46.80
56300;DHT22;42209;6.376;-10.782;2022-10-28T19:14:47;23.10;50.60
56300;DHT22;42209;6.376;-10.782;2022-10-28T19:17:15;23.20;53.10
56300;DHT22;42209;6.376;-10.782;2022-10-28T19:19:43;23.30;54.90
56300;DHT22;42209;6.376;-10.782;2022-10-28T19:22:12;23.40;56.60
56300;DHT22;42209;6.376;-10.782;2022-10-28T19:24:40;23.50;52.20
56300;DHT22;42209;6.376;-10.782;2022-10-28T19:27:08;23.20;50.10
56300;DHT22;42209;6.376;-10.782;2022-10-28T19:29:36;23.10;51.90
56300;DHT22;42209;6.376;-10.782;2022-10-28T19:32:05;23.20;55.50
56300;DHT22;42209;6.376;-10.782;2022-10-28T19:34:33;23.30;58.30
56300;DHT22;42209;6.376;-10.782;2022-10-28T19:37:01;23.50;59.60
56300;DHT22;42209;6.376;-10.782;2022-10-28T19:39:30;23.50;56.30
56300;DHT22;42209;6.376;-10.782;2022-10-28T19:41:58;23.30;52.50
56300;DHT22;42209;6.376;-10.782;2022-10-28T19:44:26;23.10;51.10
56300;DHT22;42209;6.376;-10.782;2022-10-28T19:46:55;23.00;50.20
56300;DHT22;42209;6.376;-10.782;2022-10-28T19:49:23;22.80;49.20
56300;DHT22;42209;6.376;-10.782;2022-10-28T19:51:55;22.80;48.20
56300;DHT22;42209;6.376;-10.782;2022-10-28T19:54:23;22.80;47.30
56300;DHT22;42209;6.376;-10.782;2022-10-28T19:56:51;22.80;46.90
56300;DHT22;42209;6.376;-10.782;2022-10-28T19:59:19;22.80;46.20
56300;DHT22;42209;6.376;-10.782;2022-10-28T20:01:48;22.90;45.50
56300;DHT22;42209;6.376;-10.782;2022-10-28T20:04:17;23.00;45.50
56300;DHT22;42209;6.376;-10.782;2022-10-28T20:06:45;23.00;47.80
56300;DHT22;42209;6.376;-10.782;2022-10-28T20:09:13;23.10;51.40
56300;DHT22;42209;6.376;-10.782;2022-10-28T20:11:41;23.30;54.20
56300;DHT22;42209;6.376;-10.782;2022-10-28T20:14:10;23.40;56.30
56300;DHT22;42209;6.376;-10.782;2022-10-28T20:16:40;23.50;56.60
56300;DHT22;42209;6.376;-10.782;2022-10-28T20:19:09;23.40;52.10
56300;DHT22;42209;6.376;-10.782;2022-10-28T20:21:38;23.10;50.00
56300;DHT22;42209;6.376;-10.782;2022-10-28T20:24:07;23.10;52.70
56300;DHT22;42209;6.376;-10.782;2022-10-28T20:26:37;23.30;57.40
56300;DHT22;42209;6.376;-10.782;2022-10-28T20:29:05;23.40;59.10
56300;DHT22;42209;6.376;-10.782;2022-10-28T20:31:33;23.50;60.30
56300;DHT22;42209;6.376;-10.782;2022-10-28T20:34:03;23.60;61.00
56300;DHT22;42209;6.376;-10.782;2022-10-28T20:36:32;23.60;55.00
56300;DHT22;42209;6.376;-10.782;2022-10-28T20:39:06;23.30;52.60
56300;DHT22;42209;6.376;-10.782;2022-10-28T20:41:36;23.10;51.20
56300;DHT22;42209;6.376;-10.782;2022-10-28T20:44:05;23.00;49.90
56300;DHT22;42209;6.376;-10.782;2022-10-28T20:46:34;22.90;48.90
56300;DHT22;42209;6.376;-10.782;2022-10-28T20:49:03;22.80;48.00
56300;DHT22;42209;6.376;-10.782;2022-10-28T20:51:32;22.80;47.20
56300;DHT22;42209;6.376;-10.782;2022-10-28T20:54:00;22.80;46.60
56300;DHT22;42209;6.376;-10.782;2022-10-28T20:56:31;22.80;45.90
56300;DHT22;42209;6.376;-10.782;2022-10-28T20:59:00;22.80;44.90
56300;DHT22;42209;6.376;-10.782;2022-10-28T21:01:34;23.00;44.50
56300;DHT22;42209;6.376;-10.782;2022-10-28T21:04:05;23.00;45.60
56300;DHT22;42209;6.376;-10.782;2022-10-28T21:06:35;23.10;48.90
56300;DHT22;42209;6.376;-10.782;2022-10-28T21:09:04;23.20;52.50
56300;DHT22;42209;6.376;-10.782;2022-10-28T21:11:32;23.30;54.40
56300;DHT22;42209;6.376;-10.782;2022-10-28T21:14:01;23.50;56.00
56300;DHT22;42209;6.376;-10.782;2022-10-28T21:16:29;23.50;57.00
56300;DHT22;42209;6.376;-10.782;2022-10-28T21:18:58;23.60;56.80
56300;DHT22;42209;6.376;-10.782;2022-10-28T21:21:27;23.50;51.50
56300;DHT22;42209;6.376;-10.782;2022-10-28T21:23:56;23.20;49.90
56300;DHT22;42209;6.376;-10.782;2022-10-28T21:26:24;23.20;54.10
56300;DHT22;42209;6.376;-10.782;2022-10-28T21:28:52;23.30;57.10
56300;DHT22;42209;6.376;-10.782;2022-10-28T21:31:21;23.50;58.80
56300;DHT22;42209;6.376;-10.782;2022-10-28T21:33:49;23.60;59.60
56300;DHT22;42209;6.376;-10.782;2022-10-28T21:36:19;23.40;53.40
56300;DHT22;42209;6.376;-10.782;2022-10-28T21:38:51;23.30;51.70
56300;DHT22;42209;6.376;-10.782;2022-10-28T21:41:20;23.10;50.30
56300;DHT22;42209;6.376;-10.782;2022-10-28T21:43:50;22.90;49.40
56300;DHT22;42209;6.376;-10.782;2022-10-28T21:46:20;22.80;48.30
56300;DHT22;42209;6.376;-10.782;2022-10-28T21:48:48;22.70;47.50
56300;DHT22;42209;6.376;-10.782;2022-10-28T21:51:16;22.70;46.90
56300;DHT22;42209;6.376;-10.782;2022-10-28T21:53:45;22.70;46.00
56300;DHT22;42209;6.376;-10.782;2022-10-28T21:56:15;22.70;45.50
56300;DHT22;42209;6.376;-10.782;2022-10-28T21:58:47;22.80;44.90
56300;DHT22;42209;6.376;-10.782;2022-10-28T22:01:21;22.90;44.10
56300;DHT22;42209;6.376;-10.782;2022-10-28T22:03:52;23.00;44.90
56300;DHT22;42209;6.376;-10.782;2022-10-28T22:06:21;23.00;49.10
56300;DHT22;42209;6.376;-10.782;2022-10-28T22:08:53;23.20;51.80
56300;DHT22;42209;6.376;-10.782;2022-10-28T22:11:22;23.30;54.10
56300;DHT22;42209;6.376;-10.782;2022-10-28T22:14:01;23.30;55.50
56300;DHT22;42209;6.376;-10.782;2022-10-28T22:16:32;23.40;56.50
56300;DHT22;42209;6.376;-10.782;2022-10-28T22:19:03;23.60;53.70
56300;DHT22;42209;6.376;-10.782;2022-10-28T22:21:35;23.30;50.20
56300;DHT22;42209;6.376;-10.782;2022-10-28T22:24:04;23.10;49.60
56300;DHT22;42209;6.376;-10.782;2022-10-28T22:26:33;23.20;54.10
56300;DHT22;42209;6.376;-10.782;2022-10-28T22:29:01;23.30;57.20
56300;DHT22;42209;6.376;-10.782;2022-10-28T22:31:31;23.40;59.00
56300;DHT22;42209;6.376;-10.782;2022-10-28T22:34:00;23.50;59.30
56300;DHT22;42209;6.376;-10.782;2022-10-28T22:36:29;23.60;59.30
56300;DHT22;42209;6.376;-10.782;2022-10-28T22:38:58;23.50;53.70
56300;DHT22;42209;6.376;-10.782;2022-10-28T22:41:30;23.30;51.90
56300;DHT22;42209;6.376;-10.782;2022-10-28T22:44:00;23.10;50.40
56300;DHT22;42209;6.376;-10.782;2022-10-28T22:46:31;22.90;49.20
56300;DHT22;42209;6.376;-10.782;2022-10-28T22:49:00;22.80;48.30
56300;DHT22;42209;6.376;-10.782;2022-10-28T22:51:28;22.70;47.70
56300;DHT22;42209;6.376;-10.782;2022-10-28T22:53:56;22.70;46.60
56300;DHT22;42209;6.376;-10.782;2022-10-28T22:56:25;22.70;45.60
56300;DHT22;42209;6.376;-10.782;2022-10-28T22:58:57;22.60;45.10
56300;DHT22;42209;6.376;-10.782;2022-10-28T23:01:26;22.70;44.60
56300;DHT22;42209;6.376;-10.782;2022-10-28T23:03:55;22.80;44.10
56300;DHT22;42209;6.376;-10.782;2022-10-28T23:06:25;22.80;43.80
56300;DHT22;42209;6.376;-10.782;2022-10-28T23:08:54;22.90;46.00
56300;DHT22;42209;6.376;-10.782;2022-10-28T23:11:22;23.00;49.50
56300;DHT22;42209;6.376;-10.782;2022-10-28T23:13:52;23.20;52.20
56300;DHT22;42209;6.376;-10.782;2022-10-28T23:16:22;23.30;54.30
56300;DHT22;42209;6.376;-10.782;2022-10-28T23:18:50;23.30;55.70
56300;DHT22;42209;6.376;-10.782;2022-10-28T23:21:24;23.40;56.60
56300;DHT22;42209;6.376;-10.782;2022-10-28T23:23:54;23.50;54.40
56300;DHT22;42209;6.376;-10.782;2022-10-28T23:26:24;23.40;51.00
56300;DHT22;42209;6.376;-10.782;2022-10-28T23:28:54;23.10;49.70
56300;DHT22;42209;6.376;-10.782;2022-10-28T23:31:25;23.10;54.30
56300;DHT22;42209;6.376;-10.782;2022-10-28T23:33:54;23.20;57.40
56300;DHT22;42209;6.376;-10.782;2022-10-28T23:36:23;23.40;59.00
56300;DHT22;42209;6.376;-10.782;2022-10-28T23:38:51;23.50;59.20
56300;DHT22;42209;6.376;-10.782;2022-10-28T23:41:19;23.60;59.10
56300;DHT22;42209;6.376;-10.782;2022-10-28T23:43:47;23.50;53.70
56300;DHT22;42209;6.376;-10.782;2022-10-28T23:46:16;23.20;51.70
56300;DHT22;42209;6.376;-10.782;2022-10-28T23:48:44;23.00;50.30
56300;DHT22;42209;6.376;-10.782;2022-10-28T23:51:12;22.90;49.40
56300;DHT22;42209;6.376;-10.782;2022-10-28T23:53:40;22.70;48.20
56300;DHT22;42209;6.376;-10.782;2022-10-28T23:56:09;22.70;47.30
56300;DHT22;42209;6.376;-10.782;2022-10-28T23:58:37;22.70;46.50
